Terminal Aerodrome Forecast
Issued by NWS

Home | Current Version | Previous Version | Text Only | Print | Product List | Glossary On
Versions: 1 2 3 4 5 6 7 8 9 10 11 12 13 14 15 16 17 18 19 20 21 22 23 24 25
242
FTUS44 KFWD 101730
TAFAFW
TAF
KAFW 101730Z 1018/1118 19014KT P6SM SKC
     FM110100 20011KT P6SM SKC
     FM111100 24006KT P6SM SKC
     FM111400 32009KT P6SM SKC
     FM111600 36008KT P6SM SKC=

USA.gov is the U.S. government's official web portal to all federal, state and local government web resources and services.